Time;durP1;ratioP1;P1;durP2;ratioP2;P2;SDS_P1;SDS_P2;PMS_P1;PMS_P2;Temp;Humidity;BMP_temperature;BMP_pressure;BME280_temperature;BME280_humidity;BME280_pressure;Samples;Min_cycle;Max_cycle;Signal;HPM_P1;HPM_P2
2021/10/28 07:02:32;;;;;;;42.87;26.63;;;;;;;9.05;81.05;95951.25;5069176;28;20913;-83
2021/10/28 07:04:59;;;;;;;41.73;25.27;;;;;;;8.93;81.16;95947.59;5038526;28;20465;-84
2021/10/28 07:07:29;;;;;;;45.43;26.13;;;;;;;8.87;82.90;95945.38;5068951;28;20514;-85
2021/10/28 07:10:05;;;;;;;32.10;21.77;;;;;;;8.53;83.68;95943.94;5069543;28;20455;-83
2021/10/28 07:12:43;;;;;;;41.80;24.17;;;;;;;7.93;87.95;95944.81;5068678;28;20437;-83
2021/10/28 07:15:17;;;;;;;32.43;23.40;;;;;;;7.60;88.66;95936.28;5069066;28;20451;-83
2021/10/28 07:18:08;;;;;;;37.23;22.60;;;;;;;7.28;91.53;95932.84;5068674;28;20470;-83
2021/10/28 07:27:04;;;;;;;36.00;22.93;;;;;;;7.02;93.18;95942.09;4970137;28;20438;-84
2021/10/28 07:35:08;;;;;;;41.20;24.43;;;;;;;7.61;91.01;95949.25;4989501;28;20933;-84
2021/10/28 08:05:37;;;;;;;39.33;24.27;;;;;;;8.61;88.86;95936.47;4950266;29;20479;-82
2021/10/28 08:13:49;;;;;;;35.73;24.33;;;;;;;8.94;88.03;95930.97;4937327;29;20591;-81
2021/10/28 08:16:32;;;;;;;37.63;23.90;;;;;;;9.12;87.45;95921.97;4937096;29;20440;-82
2021/10/28 08:19:05;;;;;;;39.23;24.90;;;;;;;9.44;86.11;95932.19;4937512;29;20522;-83
2021/10/28 08:21:39;;;;;;;38.07;24.43;;;;;;;9.66;84.76;95932.50;4937383;29;20475;-83
2021/10/28 08:24:30;;;;;;;32.80;22.37;;;;;;;9.87;84.08;95928.50;4937057;29;20451;-82
2021/10/28 08:29:49;;;;;;;35.40;22.30;;;;;;;10.37;82.86;95926.94;4948001;29;20445;-84
2021/10/28 08:32:16;;;;;;;31.07;22.70;;;;;;;10.58;82.50;95921.19;4956193;29;20438;-84
2021/10/28 08:34:45;;;;;;;29.50;21.60;;;;;;;10.78;80.63;95918.03;4924952;29;20454;-84
2021/10/28 08:37:16;;;;;;;30.90;21.00;;;;;;;11.01;80.75;95919.91;5008387;28;20449;-84
2021/10/28 08:39:44;;;;;;;35.03;22.47;;;;;;;11.10;79.56;95923.69;5068187;28;20487;-84
2021/10/28 08:42:14;;;;;;;30.63;21.43;;;;;;;11.11;79.02;95902.56;5116555;28;20488;-83
2021/10/28 08:44:42;;;;;;;30.90;21.60;;;;;;;11.21;79.17;95905.34;5116781;28;20480;-82
2021/10/28 08:47:10;;;;;;;28.60;20.97;;;;;;;11.38;78.12;95906.78;5116471;28;20440;-83
2021/10/28 08:49:41;;;;;;;34.20;22.50;;;;;;;11.51;78.03;95894.44;5116220;28;20443;-83
2021/10/28 08:52:23;;;;;;;30.00;21.20;;;;;;;11.69;78.49;95900.16;5116462;28;20538;-83
2021/10/28 08:55:04;;;;;;;29.40;19.50;;;;;;;11.74;77.38;95901.50;5116030;28;20439;-83
2021/10/28 09:26:17;;;;;;;26.80;18.00;;;;;;;12.96;75.89;95886.97;4879111;29;20465;-81
2021/10/28 09:28:49;;;;;;;21.23;15.63;;;;;;;13.06;74.81;95886.25;4879159;29;20453;-81
2021/10/28 09:31:20;;;;;;;20.70;15.77;;;;;;;13.03;74.80;95882.91;4878946;29;20478;-81
2021/10/28 09:33:58;;;;;;;27.30;15.50;;;;;;;13.00;74.93;95871.75;4879014;29;20482;-81
2021/10/28 09:51:36;;;;;;;25.63;13.97;;;;;;;12.93;74.93;95854.75;4878201;29;20427;-81
2021/10/28 09:54:08;;;;;;;25.57;13.50;;;;;;;12.98;73.50;95847.31;4895363;29;20940;-83
2021/10/28 09:59:26;;;;;;;21.17;12.87;;;;;;;13.11;74.44;95839.31;4934089;29;20501;-83
2021/10/28 10:02:06;;;;;;;21.10;13.13;;;;;;;12.97;73.65;95832.47;4918780;29;20458;-83
2021/10/28 10:04:34;;;;;;;18.13;12.20;;;;;;;13.18;73.30;95824.69;4918658;29;20462;-83
2021/10/28 10:07:03;;;;;;;13.13;10.83;;;;;;;13.30;72.52;95821.09;4934367;29;20863;-82
2021/10/28 10:09:30;;;;;;;14.10;12.33;;;;;;;13.40;71.64;95826.44;4934394;29;20479;-84
2021/10/28 10:11:57;;;;;;;15.20;10.17;;;;;;;13.55;71.17;95828.66;4934603;29;20456;-83
2021/10/28 10:14:26;;;;;;;19.10;10.90;;;;;;;13.58;71.37;95815.22;4934658;29;20458;-83
2021/10/28 10:16:54;;;;;;;18.47;10.37;;;;;;;13.59;69.66;95819.56;4961062;28;20916;-83
2021/10/28 10:19:30;;;;;;;11.53;9.60;;;;;;;13.55;68.73;95814.63;4989013;28;20575;-83
2021/10/28 10:21:58;;;;;;;15.30;9.83;;;;;;;13.64;68.44;95812.09;5012291;28;20447;-83
2021/10/28 10:24:44;;;;;;;16.80;10.63;;;;;;;13.51;67.17;95807.94;5011883;28;20452;-83
2021/10/28 10:30:16;;;;;;;16.13;11.47;;;;;;;13.94;67.61;95798.19;5113729;28;20591;-83
2021/10/28 11:23:09;;;;;;;5.60;5.10;;;;;;;15.46;48.65;95725.03;5051047;28;20953;-83
2021/10/28 11:26:12;;;;;;;6.70;5.73;;;;;;;15.64;46.55;95704.03;5050409;28;20548;-83
2021/10/28 12:16:58;;;;;;;4.03;3.70;;;;;;;16.07;36.22;95653.22;4974972;28;20436;-82
2021/10/28 12:25:42;;;;;;;5.63;3.97;;;;;;;16.16;35.56;95654.16;4917116;29;20432;-84
2021/10/28 12:45:33;;;;;;;4.87;3.87;;;;;;;16.27;35.79;95633.66;4974601;28;20469;-83
2021/10/28 12:48:29;;;;;;;4.60;4.00;;;;;;;16.30;37.34;95635.16;4974924;28;20450;-83
2021/10/28 12:51:12;;;;;;;3.90;3.43;;;;;;;16.31;37.05;95634.19;4967194;28;20442;-83
2021/10/28 13:02:27;;;;;;;4.53;3.63;;;;;;;16.38;36.94;95624.66;4979511;28;20425;-82
2021/10/28 13:05:30;;;;;;;11.03;4.03;;;;;;;16.40;37.34;95630.63;4993801;28;20975;-83
2021/10/28 13:38:25;;;;;;;3.50;3.07;;;;;;;16.08;33.82;95616.00;5013550;28;20454;-80
2021/10/28 13:49:09;;;;;;;3.67;3.47;;;;;;;16.07;33.91;95618.81;5105228;28;20943;-83
2021/10/28 13:51:44;;;;;;;5.47;3.00;;;;;;;15.98;33.78;95607.28;5095373;28;20480;-83
2021/10/28 13:54:30;;;;;;;4.00;3.60;;;;;;;16.09;34.96;95612.38;5095417;28;20440;-83
2021/10/28 14:27:51;;;;;;;8.80;4.00;;;;;;;15.84;36.36;95610.38;4841830;29;20433;-83
2021/10/28 15:36:04;;;;;;;36.97;20.30;;;;;;;13.82;48.92;95640.06;4938404;29;20455;-84
2021/10/28 15:38:41;;;;;;;58.33;29.53;;;;;;;13.69;49.63;95631.53;4938255;29;21013;-82
2021/10/28 15:41:29;;;;;;;44.43;19.13;;;;;;;13.58;50.08;95638.53;4967844;28;20955;-83
2021/10/28 15:55:37;;;;;;;16.83;10.07;;;;;;;12.98;52.23;95640.03;4975831;28;20430;-82
2021/10/28 16:01:17;;;;;;;19.33;10.60;;;;;;;12.81;53.11;95651.13;4975530;28;20485;-80
2021/10/28 16:22:58;;;;;;;12.40;9.63;;;;;;;12.32;52.55;95670.84;5096692;28;20836;-82
2021/10/28 16:25:25;;;;;;;25.30;15.27;;;;;;;12.27;52.88;95675.66;5077523;28;20790;-82
2021/10/28 16:27:52;;;;;;;26.00;12.10;;;;;;;12.33;52.67;95680.44;5096469;28;20440;-82
2021/10/28 16:30:19;;;;;;;28.07;16.90;;;;;;;12.37;53.44;95671.31;5095989;28;20467;-82
2021/10/28 16:32:47;;;;;;;22.63;15.57;;;;;;;12.46;53.58;95671.56;5096666;28;20464;-83
2021/10/28 16:35:14;;;;;;;24.90;15.30;;;;;;;12.51;54.42;95677.31;5096538;28;20790;-82
2021/10/28 16:37:41;;;;;;;24.53;13.87;;;;;;;12.49;54.73;95677.44;5096767;28;20493;-82
2021/10/28 16:40:11;;;;;;;26.70;14.03;;;;;;;12.59;54.68;95681.00;5095458;28;20519;-81
2021/10/28 16:42:38;;;;;;;25.10;10.93;;;;;;;12.60;54.59;95685.28;5096800;28;20532;-82
2021/10/28 16:45:08;;;;;;;25.67;9.13;;;;;;;12.37;55.34;95675.75;5096175;28;20468;-81
2021/10/28 16:47:35;;;;;;;17.00;9.83;;;;;;;12.37;55.73;95681.84;5096030;28;20443;-81
2021/10/28 16:50:02;;;;;;;14.97;8.77;;;;;;;12.33;56.74;95685.69;5096087;28;20448;-81
2021/10/28 16:52:29;;;;;;;14.40;8.03;;;;;;;12.26;56.91;95676.63;5061233;28;20440;-83
2021/10/28 16:54:56;;;;;;;9.03;7.47;;;;;;;12.21;56.66;95684.03;5096713;28;20429;-83
2021/10/28 16:57:25;;;;;;;53.77;24.47;;;;;;;13.07;96.79;95690.31;5097579;28;20443;-82
2021/10/28 16:59:52;;;;;;;23.77;11.33;;;;;;;13.97;69.32;95702.09;5116024;28;20475;-79
2021/10/28 17:02:19;;;;;;;10.17;7.13;;;;;;;14.25;54.27;95692.63;5114488;28;20454;-82
2021/10/28 17:04:46;;;;;;;12.18;6.65;;;;;;;13.90;53.28;95691.22;5116543;28;20781;-81
2021/10/28 17:07:14;;;;;;;26.40;11.27;;;;;;;13.78;53.53;95699.31;5116511;28;20197;-84
2021/10/28 17:09:41;;;;;;;23.73;13.02;;;;;;;13.59;53.66;95700.91;5115042;28;20442;-82
2021/10/28 17:12:09;;;;;;;17.53;12.30;;;;;;;13.31;54.42;95699.72;5063161;28;20210;-82
2021/10/28 17:14:38;;;;;;;17.00;12.87;;;;;;;13.10;55.22;95697.97;5064024;28;20523;-83
2021/10/28 17:17:05;;;;;;;11.33;8.90;;;;;;;12.86;56.47;95698.16;5116131;28;20430;-83
2021/10/28 17:19:32;;;;;;;13.83;8.93;;;;;;;12.63;56.88;95705.28;5063382;28;20497;-83
2021/10/28 17:21:59;;;;;;;19.57;9.10;;;;;;;12.27;58.78;95712.50;5115946;28;20507;-82
2021/10/28 17:24:33;;;;;;;11.17;7.87;;;;;;;11.98;59.17;95711.28;5115919;28;20530;-82
2021/10/28 17:30:23;;;;;;;14.20;8.17;;;;;;;11.83;60.72;95717.72;5115232;28;20523;-81
2021/10/28 17:32:51;;;;;;;13.20;7.80;;;;;;;11.72;60.62;95716.72;5080551;28;20531;-82
2021/10/28 17:35:18;;;;;;;12.30;9.43;;;;;;;11.63;60.84;95714.78;5117004;28;20431;-83
2021/10/28 17:37:44;;;;;;;9.53;8.07;;;;;;;11.60;61.53;95716.81;5115932;28;20534;-81
2021/10/28 17:40:12;;;;;;;18.37;8.07;;;;;;;11.65;61.42;95712.88;5115579;28;20489;-84
2021/10/28 17:42:40;;;;;;;15.50;9.00;;;;;;;11.71;61.39;95711.56;5114283;28;20511;-83
2021/10/28 17:45:11;;;;;;;18.93;8.90;;;;;;;11.72;61.29;95721.97;5117195;28;20496;-83
2021/10/28 17:47:41;;;;;;;11.80;7.80;;;;;;;11.69;61.17;95714.31;5116270;28;20440;-83
2021/10/28 17:50:09;;;;;;;14.43;8.60;;;;;;;11.69;60.49;95719.59;5080831;28;20522;-82
2021/10/28 17:52:37;;;;;;;14.53;8.47;;;;;;;11.66;61.57;95722.44;5063870;28;20436;-84
2021/10/28 17:55:05;;;;;;;13.57;8.70;;;;;;;11.61;61.38;95729.00;5115954;28;20453;-83
2021/10/28 17:57:32;;;;;;;8.97;7.97;;;;;;;11.63;62.15;95727.94;5071274;28;20481;-84
2021/10/28 17:59:59;;;;;;;13.23;8.83;;;;;;;11.56;62.31;95718.81;5076039;28;20563;-84
2021/10/28 18:02:26;;;;;;;11.77;9.67;;;;;;;11.50;61.83;95729.81;5075743;28;20877;-82
2021/10/28 18:04:55;;;;;;;15.33;9.20;;;;;;;11.43;62.52;95728.59;5074793;28;20437;-83
2021/10/28 18:07:22;;;;;;;19.33;13.93;;;;;;;11.42;62.90;95734.81;5074546;28;20476;-83
2021/10/28 18:09:49;;;;;;;11.70;8.83;;;;;;;11.38;62.76;95733.34;5074557;28;20476;-83
2021/10/28 18:12:16;;;;;;;12.47;8.20;;;;;;;11.38;63.06;95739.44;5074580;28;20476;-84
2021/10/28 18:14:43;;;;;;;14.33;7.87;;;;;;;11.37;62.68;95735.16;5074783;28;20871;-83
2021/10/28 18:17:11;;;;;;;8.57;6.40;;;;;;;11.33;63.37;95735.50;5075490;28;20473;-85
2021/10/28 18:19:38;;;;;;;10.03;7.20;;;;;;;11.20;63.37;95732.91;5074656;28;20484;-84
2021/10/28 18:22:07;;;;;;;13.20;8.53;;;;;;;11.18;63.71;95732.19;5074390;28;20440;-83
2021/10/28 18:24:34;;;;;;;12.03;8.07;;;;;;;11.15;64.50;95732.44;5023008;28;20532;-83
2021/10/28 18:27:01;;;;;;;13.07;7.83;;;;;;;11.12;64.12;95737.91;5074732;28;20437;-84
2021/10/28 18:29:28;;;;;;;16.30;7.67;;;;;;;11.04;63.39;95735.84;5074659;28;20433;-83
2021/10/28 18:31:55;;;;;;;10.13;7.90;;;;;;;11.04;64.12;95735.84;5023144;28;20520;-84
2021/10/28 18:34:22;;;;;;;10.40;9.00;;;;;;;11.04;64.21;95740.25;5074288;28;20469;-83
2021/10/28 18:36:50;;;;;;;25.40;12.50;;;;;;;11.00;64.20;95744.91;5074336;28;20536;-83
2021/10/28 18:39:20;;;;;;;18.17;12.70;;;;;;;10.99;65.13;95743.22;5074287;28;20476;-84
2021/10/28 18:41:48;;;;;;;22.97;14.70;;;;;;;10.91;64.39;95734.22;5074608;28;20437;-84
2021/10/28 18:44:16;;;;;;;24.05;11.75;;;;;;;10.94;64.98;95737.44;5073926;28;20442;-84
2021/10/28 18:46:43;;;;;;;16.30;9.50;;;;;;;10.94;64.43;95741.88;5074075;28;20199;-84
2021/10/28 18:49:10;;;;;;;10.37;7.47;;;;;;;10.82;65.03;95731.31;5074222;28;20529;-84
2021/10/28 18:51:38;;;;;;;9.20;6.37;;;;;;;10.71;63.86;95725.16;5074412;28;20445;-83
2021/10/28 18:54:06;;;;;;;8.90;6.17;;;;;;;10.72;64.26;95732.94;5073841;28;20911;-84
2021/10/28 18:56:34;;;;;;;7.50;6.63;;;;;;;10.68;64.89;95734.06;5073761;28;20487;-83
2021/10/28 18:59:02;;;;;;;14.03;8.93;;;;;;;10.60;65.23;95740.81;5073444;28;21067;-83
2021/10/28 19:01:31;;;;;;;10.13;7.17;;;;;;;10.64;65.63;95737.03;5073796;28;20484;-84
2021/10/28 19:03:58;;;;;;;11.20;7.33;;;;;;;10.65;65.23;95741.34;5074497;28;20422;-84
2021/10/28 19:06:25;;;;;;;10.50;7.30;;;;;;;10.66;65.31;95737.75;5074237;28;20465;-84
2021/10/28 19:08:52;;;;;;;10.63;8.57;;;;;;;10.63;65.08;95736.19;5039103;28;20981;-83
2021/10/28 19:11:20;;;;;;;11.50;7.70;;;;;;;10.60;65.54;95738.22;5073273;28;20524;-83
2021/10/28 19:13:49;;;;;;;16.47;7.50;;;;;;;10.60;65.15;95739.03;5074166;28;20524;-82
2021/10/28 19:16:17;;;;;;;8.40;7.43;;;;;;;10.64;64.80;95747.53;5073722;28;20469;-82
2021/10/28 19:18:45;;;;;;;13.70;10.70;;;;;;;10.49;65.85;95747.69;5073829;28;20433;-82
2021/10/28 19:21:13;;;;;;;9.47;7.30;;;;;;;10.48;64.96;95747.81;5073534;28;20556;-84
2021/10/28 19:23:41;;;;;;;9.63;6.33;;;;;;;10.46;65.45;95754.94;5074710;28;20514;-84
2021/10/28 19:26:09;;;;;;;12.97;7.93;;;;;;;10.45;64.96;95751.47;5074111;28;20510;-83
2021/10/28 19:28:36;;;;;;;13.50;7.17;;;;;;;10.50;64.78;95757.25;5073527;28;20447;-84
2021/10/28 19:31:08;;;;;;;9.37;6.97;;;;;;;10.52;64.24;95754.50;5073684;28;20441;-84
2021/10/28 19:33:42;;;;;;;57.63;20.90;;;;;;;10.53;64.05;95751.78;5073625;28;20777;-84
2021/10/28 19:36:14;;;;;;;23.37;14.20;;;;;;;10.49;64.79;95758.19;5074395;28;20473;-85
2021/10/28 19:39:09;;;;;;;19.90;10.93;;;;;;;10.47;65.68;95754.00;5074067;28;20459;-84
2021/10/28 19:47:14;;;;;;;18.23;8.50;;;;;;;10.52;64.85;95752.72;5073629;28;20452;-84
2021/10/28 19:49:43;;;;;;;14.60;7.90;;;;;;;10.58;65.56;95767.19;5074224;28;20465;-85
2021/10/28 19:52:12;;;;;;;10.30;7.40;;;;;;;10.55;65.46;95756.91;5074868;28;20742;-85
2021/10/28 19:54:41;;;;;;;12.17;8.37;;;;;;;10.57;65.66;95764.66;5074468;28;20442;-84
2021/10/28 19:57:14;;;;;;;10.30;7.03;;;;;;;10.57;65.49;95772.53;5077139;28;20472;-85
2021/10/28 19:59:45;;;;;;;13.40;7.00;;;;;;;10.50;65.35;95765.13;5075255;28;20437;-85
2021/10/28 20:02:19;;;;;;;11.20;7.47;;;;;;;10.46;65.39;95763.66;5075295;28;20433;-85
2021/10/28 20:05:09;;;;;;;7.03;6.33;;;;;;;10.39;66.19;95765.00;5075697;28;20845;-85
2021/10/28 20:07:56;;;;;;;9.63;7.20;;;;;;;10.36;66.40;95762.59;5078979;28;20444;-84
2021/10/28 20:21:19;;;;;;;13.90;7.57;;;;;;;10.13;67.16;95769.44;5015019;28;20478;-84
2021/10/28 20:23:49;;;;;;;14.27;8.43;;;;;;;10.10;67.62;95766.16;5015050;28;20539;-85
2021/10/28 20:29:42;;;;;;;12.00;8.93;;;;;;;10.07;68.57;95769.84;5015212;28;20422;-83
2021/10/28 20:32:09;;;;;;;15.33;10.03;;;;;;;10.09;68.16;95767.09;5016487;28;20475;-84
2021/10/28 20:34:49;;;;;;;12.70;9.50;;;;;;;10.11;67.97;95760.81;4982846;28;20440;-84
2021/10/28 20:37:16;;;;;;;43.67;9.83;;;;;;;10.06;68.65;95764.69;5014730;28;20514;-84
2021/10/28 20:39:45;;;;;;;14.80;8.10;;;;;;;9.91;69.25;95758.72;5014390;28;20926;-84
2021/10/28 20:42:15;;;;;;;14.03;9.30;;;;;;;9.94;69.14;95753.28;5014751;28;20483;-84
2021/10/28 20:44:42;;;;;;;13.77;9.13;;;;;;;9.92;69.65;95753.38;5014797;28;20462;-83
2021/10/28 20:47:09;;;;;;;15.17;10.60;;;;;;;9.94;69.43;95761.97;5015093;28;20853;-83
2021/10/28 20:49:38;;;;;;;19.87;13.07;;;;;;;9.88;69.33;95754.53;5014647;28;20865;-84
2021/10/28 20:52:12;;;;;;;15.90;12.57;;;;;;;9.84;69.49;95758.31;5019340;28;20446;-84
2021/10/28 20:54:40;;;;;;;12.77;10.73;;;;;;;9.81;70.22;95753.25;5076319;28;20424;-85
2021/10/28 20:57:07;;;;;;;16.07;11.27;;;;;;;9.82;70.80;95760.19;5076371;28;20524;-83
2021/10/28 20:59:34;;;;;;;16.40;10.33;;;;;;;9.80;71.44;95750.75;5075721;28;20854;-84
2021/10/28 21:02:01;;;;;;;12.60;8.43;;;;;;;9.81;71.31;95758.50;5076260;28;20878;-84
2021/10/28 21:04:28;;;;;;;12.00;8.40;;;;;;;9.83;71.50;95750.53;5075953;28;20429;-85
2021/10/28 21:06:57;;;;;;;11.93;8.03;;;;;;;9.75;71.39;95752.84;5076382;28;20461;-84
2021/10/28 21:09:24;;;;;;;16.37;10.57;;;;;;;9.72;71.01;95742.56;5076323;28;20452;-84
2021/10/28 21:11:52;;;;;;;16.50;9.93;;;;;;;9.78;71.30;95752.63;5075528;28;20449;-85
2021/10/28 21:14:19;;;;;;;13.60;10.53;;;;;;;9.75;71.33;95743.19;5075735;28;20997;-85
2021/10/28 21:16:46;;;;;;;13.20;11.27;;;;;;;9.67;71.59;95745.50;5075080;28;21018;-85
2021/10/28 21:19:14;;;;;;;17.87;10.67;;;;;;;9.62;71.22;95742.38;5074999;28;20459;-86
2021/10/28 21:21:42;;;;;;;14.30;9.53;;;;;;;9.61;72.32;95749.38;5076330;28;20513;-85
2021/10/28 21:24:12;;;;;;;16.47;11.90;;;;;;;9.58;71.73;95738.28;5075277;28;20449;-86
2021/10/28 21:26:39;;;;;;;13.37;9.47;;;;;;;9.58;71.86;95748.75;5076135;28;20448;-85
2021/10/28 21:29:06;;;;;;;17.00;9.10;;;;;;;9.58;72.67;95740.91;5075502;28;20540;-86
2021/10/28 21:31:33;;;;;;;14.50;10.57;;;;;;;9.54;72.17;95752.50;5075545;28;20523;-86
2021/10/28 21:34:01;;;;;;;12.03;10.43;;;;;;;9.46;72.46;95749.56;5075819;28;20441;-85
2021/10/28 21:36:28;;;;;;;14.40;11.07;;;;;;;9.42;72.46;95743.69;5075501;28;20908;-85
2021/10/28 21:38:55;;;;;;;16.47;11.17;;;;;;;9.30;72.77;95747.97;5075004;28;20438;-85
2021/10/28 21:41:24;;;;;;;15.90;10.67;;;;;;;9.25;73.74;95743.94;5040678;28;20572;-85
2021/10/28 21:43:52;;;;;;;12.57;9.33;;;;;;;9.23;73.75;95754.53;5075004;28;20437;-85
2021/10/28 21:46:19;;;;;;;12.90;9.73;;;;;;;9.21;73.54;95752.94;5074974;28;20472;-85
2021/10/28 21:48:48;;;;;;;14.37;8.90;;;;;;;9.16;73.97;95749.81;5074744;28;20441;-85
2021/10/28 21:51:19;;;;;;;16.50;10.30;;;;;;;9.17;74.09;95754.09;5074564;28;20453;-85
2021/10/28 21:53:49;;;;;;;15.10;10.80;;;;;;;9.17;74.17;95757.56;5074170;28;20445;-85
2021/10/28 21:56:25;;;;;;;13.03;9.20;;;;;;;9.15;74.21;95756.81;5040345;28;20498;-86
2021/10/28 22:01:52;;;;;;;15.73;8.70;;;;;;;9.07;74.46;95753.03;4992972;28;20477;-85
2021/10/28 22:24:07;;;;;;;11.33;9.57;;;;;;;8.98;74.90;95772.78;5008131;28;21048;-85
2021/10/28 22:24:17;;;;;;;18.27;10.63;;;;;;;8.85;76.07;95757.03;4915347;29;20872;-85
2021/10/28 22:26:45;;;;;;;13.73;9.47;;;;;;;8.88;76.73;95761.22;4915232;29;20467;-85
2021/10/28 22:29:12;;;;;;;13.67;10.00;;;;;;;8.88;76.89;95746.34;4915465;29;20565;-85
2021/10/28 22:31:41;;;;;;;11.67;8.87;;;;;;;8.84;76.75;95744.03;4915361;29;20925;-85
2021/10/28 22:34:08;;;;;;;12.00;8.43;;;;;;;8.91;76.86;95750.56;4915646;29;20457;-85
2021/10/28 22:36:40;;;;;;;14.87;9.30;;;;;;;8.92;76.82;95747.84;4956789;28;20983;-85
2021/10/28 22:39:13;;;;;;;15.13;10.80;;;;;;;8.84;76.37;95737.03;4992387;28;20449;-85
2021/10/28 22:41:40;;;;;;;16.60;10.97;;;;;;;8.88;76.51;95741.13;4992215;28;20479;-85
2021/10/28 22:44:07;;;;;;;13.50;9.43;;;;;;;8.83;76.61;95737.97;4991804;28;20955;-85
2021/10/28 22:46:34;;;;;;;14.87;9.73;;;;;;;8.76;76.58;95733.22;4992135;28;20551;-85
2021/10/28 22:49:03;;;;;;;13.80;10.27;;;;;;;8.65;77.57;95737.34;4959924;28;20454;-84
2021/10/28 22:51:30;;;;;;;10.40;8.87;;;;;;;8.68;78.06;95739.81;4991523;28;20874;-85
2021/10/28 22:53:57;;;;;;;9.00;8.03;;;;;;;8.72;77.69;95726.53;4991889;28;20551;-85
2021/10/28 22:56:25;;;;;;;11.27;8.70;;;;;;;8.66;77.63;95728.56;4991564;28;20500;-84
2021/10/28 22:58:58;;;;;;;13.20;8.70;;;;;;;8.62;77.76;95726.25;5001323;28;20489;-85
2021/10/28 23:01:28;;;;;;;10.17;7.70;;;;;;;8.69;77.92;95725.78;5073188;28;20515;-85
2021/10/28 23:23:03;;;;;;;14.80;9.70;;;;;;;8.69;78.50;95710.09;4991633;28;20432;-84
2021/10/28 23:25:30;;;;;;;11.50;8.03;;;;;;;8.66;78.35;95707.63;4991688;28;20539;-85
2021/10/28 23:27:57;;;;;;;19.87;10.40;;;;;;;8.43;79.43;95713.50;4991896;28;20467;-85
2021/10/28 23:30:24;;;;;;;16.57;8.40;;;;;;;8.62;78.77;95719.25;4991544;28;20520;-85
2021/10/28 23:32:51;;;;;;;16.10;9.73;;;;;;;8.71;78.63;95728.31;4991992;28;20484;-85
2021/10/28 23:35:19;;;;;;;15.83;11.23;;;;;;;8.67;78.29;95729.41;4991389;28;20847;-85
2021/10/28 23:37:45;;;;;;;16.97;11.17;;;;;;;8.67;78.19;95732.88;4991740;28;20540;-85
2021/10/28 23:40:14;;;;;;;18.47;11.90;;;;;;;8.69;77.78;95732.78;4991994;28;20957;-85
2021/10/28 23:42:41;;;;;;;21.77;13.23;;;;;;;8.70;77.98;95742.31;4995438;28;20511;-85
2021/10/28 23:45:09;;;;;;;14.30;11.07;;;;;;;8.73;78.00;95741.28;4995556;28;20535;-85
2021/10/28 23:47:36;;;;;;;18.00;12.20;;;;;;;8.68;77.82;95747.66;5068460;28;20476;-85
2021/10/28 23:50:04;;;;;;;20.40;12.40;;;;;;;8.68;77.80;95741.56;5076850;28;20495;-85
2021/10/28 23:52:32;;;;;;;18.50;12.27;;;;;;;8.67;76.93;95738.13;5042040;28;20437;-85
2021/10/28 23:54:59;;;;;;;17.30;13.00;;;;;;;8.65;77.27;95736.50;5076536;28;20452;-85
2021/10/28 23:57:27;;;;;;;15.60;11.80;;;;;;;8.71;77.55;95740.53;5078517;28;20483;-83
2021/10/28 23:59:54;;;;;;;13.53;9.87;;;;;;;8.72;78.09;95737.00;5096844;28;20505;-83
